sensor_id;sensor_type;location;lat;lon;timestamp;temperature;humidity
30520;DHT22;17300;50.374;8.006;2022-08-03T00:01:04;23.10;45.20
30520;DHT22;17300;50.374;8.006;2022-08-03T00:03:32;23.10;45.40
30520;DHT22;17300;50.374;8.006;2022-08-03T00:05:59;23.10;45.40
30520;DHT22;17300;50.374;8.006;2022-08-03T00:08:25;23.00;45.30
30520;DHT22;17300;50.374;8.006;2022-08-03T00:10:52;23.00;45.40
30520;DHT22;17300;50.374;8.006;2022-08-03T00:13:19;23.00;45.50
30520;DHT22;17300;50.374;8.006;2022-08-03T00:15:45;23.00;45.60
30520;DHT22;17300;50.374;8.006;2022-08-03T00:18:14;22.90;45.70
30520;DHT22;17300;50.374;8.006;2022-08-03T00:20:41;22.90;45.80
30520;DHT22;17300;50.374;8.006;2022-08-03T00:23:08;22.80;45.70
30520;DHT22;17300;50.374;8.006;2022-08-03T00:25:35;22.80;45.90
30520;DHT22;17300;50.374;8.006;2022-08-03T00:28:03;22.70;45.80
30520;DHT22;17300;50.374;8.006;2022-08-03T00:30:30;22.70;45.90
30520;DHT22;17300;50.374;8.006;2022-08-03T00:32:58;22.70;46.00
30520;DHT22;17300;50.374;8.006;2022-08-03T00:35:26;22.70;46.10
30520;DHT22;17300;50.374;8.006;2022-08-03T00:37:53;22.60;46.20
30520;DHT22;17300;50.374;8.006;2022-08-03T00:40:20;22.60;46.20
30520;DHT22;17300;50.374;8.006;2022-08-03T00:42:48;22.60;46.30
30520;DHT22;17300;50.374;8.006;2022-08-03T00:45:16;22.50;46.40
30520;DHT22;17300;50.374;8.006;2022-08-03T00:47:43;22.50;46.40
30520;DHT22;17300;50.374;8.006;2022-08-03T00:50:10;22.50;46.40
30520;DHT22;17300;50.374;8.006;2022-08-03T00:52:39;22.40;46.40
30520;DHT22;17300;50.374;8.006;2022-08-03T00:55:07;22.40;46.70
30520;DHT22;17300;50.374;8.006;2022-08-03T00:57:33;22.40;46.70
30520;DHT22;17300;50.374;8.006;2022-08-03T01:00:00;22.30;46.70
30520;DHT22;17300;50.374;8.006;2022-08-03T01:02:27;22.30;46.80
30520;DHT22;17300;50.374;8.006;2022-08-03T01:04:55;22.30;46.80
30520;DHT22;17300;50.374;8.006;2022-08-03T01:07:27;22.30;46.90
30520;DHT22;17300;50.374;8.006;2022-08-03T01:10:03;22.20;47.30
30520;DHT22;17300;50.374;8.006;2022-08-03T01:12:35;22.20;47.30
30520;DHT22;17300;50.374;8.006;2022-08-03T01:15:10;22.20;47.30
30520;DHT22;17300;50.374;8.006;2022-08-03T01:17:45;22.20;47.60
30520;DHT22;17300;50.374;8.006;2022-08-03T01:20:16;22.10;47.50
30520;DHT22;17300;50.374;8.006;2022-08-03T01:23:06;22.10;47.30
30520;DHT22;17300;50.374;8.006;2022-08-03T01:25:51;22.10;48.00
30520;DHT22;17300;50.374;8.006;2022-08-03T01:28:28;22.00;47.90
30520;DHT22;17300;50.374;8.006;2022-08-03T01:31:03;22.00;47.70
30520;DHT22;17300;50.374;8.006;2022-08-03T01:33:33;22.00;47.70
30520;DHT22;17300;50.374;8.006;2022-08-03T01:36:03;22.00;47.60
30520;DHT22;17300;50.374;8.006;2022-08-03T01:38:32;21.90;47.60
30520;DHT22;17300;50.374;8.006;2022-08-03T01:41:03;21.90;47.70
30520;DHT22;17300;50.374;8.006;2022-08-03T01:43:30;21.90;48.00
30520;DHT22;17300;50.374;8.006;2022-08-03T01:45:59;21.80;47.70
30520;DHT22;17300;50.374;8.006;2022-08-03T01:48:27;21.80;47.80
30520;DHT22;17300;50.374;8.006;2022-08-03T01:50:56;21.80;48.00
30520;DHT22;17300;50.374;8.006;2022-08-03T01:53:23;21.80;48.00
30520;DHT22;17300;50.374;8.006;2022-08-03T01:55:53;21.70;48.00
30520;DHT22;17300;50.374;8.006;2022-08-03T01:58:23;21.70;48.20
30520;DHT22;17300;50.374;8.006;2022-08-03T02:00:51;21.70;48.20
30520;DHT22;17300;50.374;8.006;2022-08-03T02:03:22;21.60;48.10
30520;DHT22;17300;50.374;8.006;2022-08-03T02:05:51;21.60;48.20
30520;DHT22;17300;50.374;8.006;2022-08-03T02:08:20;21.60;48.20
30520;DHT22;17300;50.374;8.006;2022-08-03T02:10:50;21.60;48.40
30520;DHT22;17300;50.374;8.006;2022-08-03T02:13:18;21.50;48.40
30520;DHT22;17300;50.374;8.006;2022-08-03T02:15:46;21.50;48.50
30520;DHT22;17300;50.374;8.006;2022-08-03T02:18:14;21.50;48.60
30520;DHT22;17300;50.374;8.006;2022-08-03T02:20:43;21.50;48.60
30520;DHT22;17300;50.374;8.006;2022-08-03T02:23:10;21.40;48.70
30520;DHT22;17300;50.374;8.006;2022-08-03T02:25:42;21.40;48.70
30520;DHT22;17300;50.374;8.006;2022-08-03T02:28:13;21.40;49.10
30520;DHT22;17300;50.374;8.006;2022-08-03T02:30:44;21.30;48.90
30520;DHT22;17300;50.374;8.006;2022-08-03T02:33:16;21.30;49.00
30520;DHT22;17300;50.374;8.006;2022-08-03T02:35:46;21.20;49.00
30520;DHT22;17300;50.374;8.006;2022-08-03T02:38:15;21.20;49.20
30520;DHT22;17300;50.374;8.006;2022-08-03T02:40:44;21.20;49.20
30520;DHT22;17300;50.374;8.006;2022-08-03T02:43:17;21.20;49.20
30520;DHT22;17300;50.374;8.006;2022-08-03T02:45:47;21.20;49.60
30520;DHT22;17300;50.374;8.006;2022-08-03T02:48:17;21.10;49.30
30520;DHT22;17300;50.374;8.006;2022-08-03T02:50:49;21.10;49.40
30520;DHT22;17300;50.374;8.006;2022-08-03T02:53:18;21.10;49.40
30520;DHT22;17300;50.374;8.006;2022-08-03T02:55:45;21.10;49.40
30520;DHT22;17300;50.374;8.006;2022-08-03T02:58:13;21.00;49.40
30520;DHT22;17300;50.374;8.006;2022-08-03T03:00:43;21.00;49.50
30520;DHT22;17300;50.374;8.006;2022-08-03T03:03:10;21.00;49.50
30520;DHT22;17300;50.374;8.006;2022-08-03T03:05:39;20.90;49.50
30520;DHT22;17300;50.374;8.006;2022-08-03T03:08:09;20.90;49.70
30520;DHT22;17300;50.374;8.006;2022-08-03T03:10:38;20.90;49.90
30520;DHT22;17300;50.374;8.006;2022-08-03T03:13:06;20.80;50.30
30520;DHT22;17300;50.374;8.006;2022-08-03T03:15:34;20.80;49.90
30520;DHT22;17300;50.374;8.006;2022-08-03T03:18:02;20.80;49.90
30520;DHT22;17300;50.374;8.006;2022-08-03T03:20:29;20.80;49.90
30520;DHT22;17300;50.374;8.006;2022-08-03T03:22:58;20.80;49.90
30520;DHT22;17300;50.374;8.006;2022-08-03T03:25:28;20.80;50.00
30520;DHT22;17300;50.374;8.006;2022-08-03T03:27:57;20.70;50.10
30520;DHT22;17300;50.374;8.006;2022-08-03T03:30:24;20.70;50.00
30520;DHT22;17300;50.374;8.006;2022-08-03T03:32:51;20.70;50.10
30520;DHT22;17300;50.374;8.006;2022-08-03T03:35:18;20.70;50.20
30520;DHT22;17300;50.374;8.006;2022-08-03T03:37:45;20.70;50.20
30520;DHT22;17300;50.374;8.006;2022-08-03T03:40:13;20.60;50.20
30520;DHT22;17300;50.374;8.006;2022-08-03T03:42:41;20.60;50.30
30520;DHT22;17300;50.374;8.006;2022-08-03T03:45:09;20.60;50.40
30520;DHT22;17300;50.374;8.006;2022-08-03T03:47:37;20.60;50.50
30520;DHT22;17300;50.374;8.006;2022-08-03T03:50:05;20.50;50.40
30520;DHT22;17300;50.374;8.006;2022-08-03T03:52:32;20.50;50.60
30520;DHT22;17300;50.374;8.006;2022-08-03T03:54:59;20.50;50.70
30520;DHT22;17300;50.374;8.006;2022-08-03T03:57:26;20.50;50.70
30520;DHT22;17300;50.374;8.006;2022-08-03T03:59:55;20.40;50.70
30520;DHT22;17300;50.374;8.006;2022-08-03T04:02:22;20.40;50.80
30520;DHT22;17300;50.374;8.006;2022-08-03T04:04:48;20.40;50.80
30520;DHT22;17300;50.374;8.006;2022-08-03T04:07:39;20.40;50.90
30520;DHT22;17300;50.374;8.006;2022-08-03T04:10:30;20.40;51.20
30520;DHT22;17300;50.374;8.006;2022-08-03T04:13:22;20.40;51.00
30520;DHT22;17300;50.374;8.006;2022-08-03T04:15:51;20.40;50.90
30520;DHT22;17300;50.374;8.006;2022-08-03T04:18:19;20.40;51.10
30520;DHT22;17300;50.374;8.006;2022-08-03T04:20:48;20.40;51.10
30520;DHT22;17300;50.374;8.006;2022-08-03T04:23:16;20.30;51.20
30520;DHT22;17300;50.374;8.006;2022-08-03T04:25:45;20.40;51.20
30520;DHT22;17300;50.374;8.006;2022-08-03T04:28:14;20.30;51.30
30520;DHT22;17300;50.374;8.006;2022-08-03T04:30:44;20.30;51.30
30520;DHT22;17300;50.374;8.006;2022-08-03T04:33:15;20.30;51.60
30520;DHT22;17300;50.374;8.006;2022-08-03T04:35:43;20.30;51.60
30520;DHT22;17300;50.374;8.006;2022-08-03T04:38:13;20.40;51.70
30520;DHT22;17300;50.374;8.006;2022-08-03T04:40:41;20.30;51.80
30520;DHT22;17300;50.374;8.006;2022-08-03T04:43:10;20.40;51.90
30520;DHT22;17300;50.374;8.006;2022-08-03T04:45:39;20.40;51.90
30520;DHT22;17300;50.374;8.006;2022-08-03T04:48:06;20.40;51.90
30520;DHT22;17300;50.374;8.006;2022-08-03T04:50:34;20.40;51.90
30520;DHT22;17300;50.374;8.006;2022-08-03T04:53:04;20.20;55.30
30520;DHT22;17300;50.374;8.006;2022-08-03T04:55:32;20.30;54.00
30520;DHT22;17300;50.374;8.006;2022-08-03T04:57:59;20.40;53.50
30520;DHT22;17300;50.374;8.006;2022-08-03T05:00:27;20.40;53.10
30520;DHT22;17300;50.374;8.006;2022-08-03T05:02:54;20.50;53.00
30520;DHT22;17300;50.374;8.006;2022-08-03T05:05:21;20.50;52.90
30520;DHT22;17300;50.374;8.006;2022-08-03T05:07:50;20.60;52.90
30520;DHT22;17300;50.374;8.006;2022-08-03T05:10:16;20.60;52.90
30520;DHT22;17300;50.374;8.006;2022-08-03T05:12:44;20.70;52.90
30520;DHT22;17300;50.374;8.006;2022-08-03T05:15:11;20.70;52.90
30520;DHT22;17300;50.374;8.006;2022-08-03T05:17:38;20.80;52.90
30520;DHT22;17300;50.374;8.006;2022-08-03T05:20:06;20.80;52.80
30520;DHT22;17300;50.374;8.006;2022-08-03T05:22:33;20.90;52.90
30520;DHT22;17300;50.374;8.006;2022-08-03T05:25:01;21.00;52.90
30520;DHT22;17300;50.374;8.006;2022-08-03T05:27:28;21.00;52.80
30520;DHT22;17300;50.374;8.006;2022-08-03T05:29:55;21.10;52.80
30520;DHT22;17300;50.374;8.006;2022-08-03T05:32:22;21.20;52.80
30520;DHT22;17300;50.374;8.006;2022-08-03T05:34:49;21.30;52.90
30520;DHT22;17300;50.374;8.006;2022-08-03T05:37:15;21.40;52.90
30520;DHT22;17300;50.374;8.006;2022-08-03T05:39:42;21.50;52.90
30520;DHT22;17300;50.374;8.006;2022-08-03T05:42:10;21.60;52.90
30520;DHT22;17300;50.374;8.006;2022-08-03T05:44:37;21.70;52.90
30520;DHT22;17300;50.374;8.006;2022-08-03T05:47:04;21.80;52.80
30520;DHT22;17300;50.374;8.006;2022-08-03T05:49:30;22.00;52.90
30520;DHT22;17300;50.374;8.006;2022-08-03T05:51:57;22.20;53.10
30520;DHT22;17300;50.374;8.006;2022-08-03T05:54:24;22.30;53.10
30520;DHT22;17300;50.374;8.006;2022-08-03T05:56:51;22.50;53.30
30520;DHT22;17300;50.374;8.006;2022-08-03T05:59:19;22.70;53.50
30520;DHT22;17300;50.374;8.006;2022-08-03T06:01:47;23.00;53.70
30520;DHT22;17300;50.374;8.006;2022-08-03T06:04:14;23.30;53.80
30520;DHT22;17300;50.374;8.006;2022-08-03T06:06:41;23.70;54.20
30520;DHT22;17300;50.374;8.006;2022-08-03T06:09:08;24.10;54.90
30520;DHT22;17300;50.374;8.006;2022-08-03T06:11:36;24.70;55.70
30520;DHT22;17300;50.374;8.006;2022-08-03T06:14:03;25.40;56.00
30520;DHT22;17300;50.374;8.006;2022-08-03T06:16:31;26.20;56.30
30520;DHT22;17300;50.374;8.006;2022-08-03T06:18:58;27.10;56.20
30520;DHT22;17300;50.374;8.006;2022-08-03T06:21:25;28.00;55.60
30520;DHT22;17300;50.374;8.006;2022-08-03T06:23:52;28.90;54.60
30520;DHT22;17300;50.374;8.006;2022-08-03T06:26:18;29.90;53.60
30520;DHT22;17300;50.374;8.006;2022-08-03T06:28:45;30.80;52.30
30520;DHT22;17300;50.374;8.006;2022-08-03T06:31:13;31.80;51.00
30520;DHT22;17300;50.374;8.006;2022-08-03T06:33:41;32.70;49.80
30520;DHT22;17300;50.374;8.006;2022-08-03T06:36:08;33.70;48.30
30520;DHT22;17300;50.374;8.006;2022-08-03T06:38:35;34.60;47.00
30520;DHT22;17300;50.374;8.006;2022-08-03T06:41:01;35.40;46.20
30520;DHT22;17300;50.374;8.006;2022-08-03T06:43:28;36.30;44.20
30520;DHT22;17300;50.374;8.006;2022-08-03T06:45:55;37.00;42.60
30520;DHT22;17300;50.374;8.006;2022-08-03T06:48:21;37.80;41.30
30520;DHT22;17300;50.374;8.006;2022-08-03T06:50:49;38.50;40.10
30520;DHT22;17300;50.374;8.006;2022-08-03T06:53:16;39.20;38.70
30520;DHT22;17300;50.374;8.006;2022-08-03T06:55:43;39.90;37.70
30520;DHT22;17300;50.374;8.006;2022-08-03T06:58:10;40.50;36.80
30520;DHT22;17300;50.374;8.006;2022-08-03T07:00:37;41.10;35.70
30520;DHT22;17300;50.374;8.006;2022-08-03T07:03:03;41.70;34.90
30520;DHT22;17300;50.374;8.006;2022-08-03T07:05:30;42.30;33.90
30520;DHT22;17300;50.374;8.006;2022-08-03T07:08:00;42.80;32.90
30520;DHT22;17300;50.374;8.006;2022-08-03T07:10:27;43.40;31.80
30520;DHT22;17300;50.374;8.006;2022-08-03T07:12:54;43.80;31.00
30520;DHT22;17300;50.374;8.006;2022-08-03T07:15:21;44.20;30.10
30520;DHT22;17300;50.374;8.006;2022-08-03T07:17:48;44.50;29.60
30520;DHT22;17300;50.374;8.006;2022-08-03T07:20:14;44.90;29.20
30520;DHT22;17300;50.374;8.006;2022-08-03T07:22:42;45.20;28.70
30520;DHT22;17300;50.374;8.006;2022-08-03T07:25:53;45.60;28.20
30520;DHT22;17300;50.374;8.006;2022-08-03T07:28:24;46.00;28.60
30520;DHT22;17300;50.374;8.006;2022-08-03T07:30:51;46.50;27.70
30520;DHT22;17300;50.374;8.006;2022-08-03T07:33:18;46.80;27.20
30520;DHT22;17300;50.374;8.006;2022-08-03T07:35:45;47.10;26.50
30520;DHT22;17300;50.374;8.006;2022-08-03T07:38:12;47.30;25.90
30520;DHT22;17300;50.374;8.006;2022-08-03T07:40:39;47.50;25.60
30520;DHT22;17300;50.374;8.006;2022-08-03T07:43:07;47.70;25.20
30520;DHT22;17300;50.374;8.006;2022-08-03T07:45:34;47.90;25.10
30520;DHT22;17300;50.374;8.006;2022-08-03T07:48:00;48.10;25.00
30520;DHT22;17300;50.374;8.006;2022-08-03T07:50:27;48.30;24.80
30520;DHT22;17300;50.374;8.006;2022-08-03T07:52:54;48.50;24.40
30520;DHT22;17300;50.374;8.006;2022-08-03T07:55:23;48.80;24.30
30520;DHT22;17300;50.374;8.006;2022-08-03T07:58:04;49.00;23.90
30520;DHT22;17300;50.374;8.006;2022-08-03T08:00:33;49.30;23.70
30520;DHT22;17300;50.374;8.006;2022-08-03T08:03:00;49.50;23.70
30520;DHT22;17300;50.374;8.006;2022-08-03T08:05:27;49.80;23.00
30520;DHT22;17300;50.374;8.006;2022-08-03T08:07:54;50.00;22.90
30520;DHT22;17300;50.374;8.006;2022-08-03T08:10:21;50.20;22.80
30520;DHT22;17300;50.374;8.006;2022-08-03T08:12:47;50.40;22.60
30520;DHT22;17300;50.374;8.006;2022-08-03T08:15:14;50.60;22.50
30520;DHT22;17300;50.374;8.006;2022-08-03T08:17:44;50.70;22.70
30520;DHT22;17300;50.374;8.006;2022-08-03T08:20:15;50.90;22.00
30520;DHT22;17300;50.374;8.006;2022-08-03T08:22:42;51.00;21.70
30520;DHT22;17300;50.374;8.006;2022-08-03T08:25:09;51.30;21.70
30520;DHT22;17300;50.374;8.006;2022-08-03T08:27:41;51.50;21.50
30520;DHT22;17300;50.374;8.006;2022-08-03T08:30:09;51.70;20.90
30520;DHT22;17300;50.374;8.006;2022-08-03T08:32:35;51.90;21.20
30520;DHT22;17300;50.374;8.006;2022-08-03T08:35:04;52.10;21.10
30520;DHT22;17300;50.374;8.006;2022-08-03T08:37:32;52.40;20.80
30520;DHT22;17300;50.374;8.006;2022-08-03T08:39:59;52.60;20.80
30520;DHT22;17300;50.374;8.006;2022-08-03T08:42:26;52.80;20.50
30520;DHT22;17300;50.374;8.006;2022-08-03T08:44:53;53.00;20.30
30520;DHT22;17300;50.374;8.006;2022-08-03T08:47:23;53.20;20.30
30520;DHT22;17300;50.374;8.006;2022-08-03T08:49:52;53.40;20.10
30520;DHT22;17300;50.374;8.006;2022-08-03T08:52:23;53.60;20.00
30520;DHT22;17300;50.374;8.006;2022-08-03T08:54:51;53.70;19.80
30520;DHT22;17300;50.374;8.006;2022-08-03T08:57:21;54.00;19.90
30520;DHT22;17300;50.374;8.006;2022-08-03T08:59:50;54.20;19.60
30520;DHT22;17300;50.374;8.006;2022-08-03T09:02:21;54.50;19.50
30520;DHT22;17300;50.374;8.006;2022-08-03T09:04:48;54.60;19.30
30520;DHT22;17300;50.374;8.006;2022-08-03T09:07:16;54.80;19.30
30520;DHT22;17300;50.374;8.006;2022-08-03T09:09:48;55.00;19.10
30520;DHT22;17300;50.374;8.006;2022-08-03T09:12:15;55.10;18.90
30520;DHT22;17300;50.374;8.006;2022-08-03T09:14:41;55.30;19.00
30520;DHT22;17300;50.374;8.006;2022-08-03T09:17:08;55.40;18.70
30520;DHT22;17300;50.374;8.006;2022-08-03T09:19:35;55.60;18.70
30520;DHT22;17300;50.374;8.006;2022-08-03T09:22:10;55.80;18.40
30520;DHT22;17300;50.374;8.006;2022-08-03T09:24:37;56.00;18.00
30520;DHT22;17300;50.374;8.006;2022-08-03T09:27:10;56.20;18.20
30520;DHT22;17300;50.374;8.006;2022-08-03T09:29:38;56.40;17.70
30520;DHT22;17300;50.374;8.006;2022-08-03T09:32:05;56.50;17.60
30520;DHT22;17300;50.374;8.006;2022-08-03T09:34:32;56.60;17.60
30520;DHT22;17300;50.374;8.006;2022-08-03T09:36:58;56.70;17.30
30520;DHT22;17300;50.374;8.006;2022-08-03T09:39:26;56.70;17.10
30520;DHT22;17300;50.374;8.006;2022-08-03T09:42:08;56.80;17.10
30520;DHT22;17300;50.374;8.006;2022-08-03T09:44:37;56.80;17.20
30520;DHT22;17300;50.374;8.006;2022-08-03T09:47:04;56.90;17.00
30520;DHT22;17300;50.374;8.006;2022-08-03T09:49:32;56.90;16.70
30520;DHT22;17300;50.374;8.006;2022-08-03T09:52:01;56.90;16.70
30520;DHT22;17300;50.374;8.006;2022-08-03T09:54:37;56.90;16.50
30520;DHT22;17300;50.374;8.006;2022-08-03T09:57:04;56.90;16.80
30520;DHT22;17300;50.374;8.006;2022-08-03T09:59:33;56.90;16.80
30520;DHT22;17300;50.374;8.006;2022-08-03T10:02:00;56.90;16.40
30520;DHT22;17300;50.374;8.006;2022-08-03T10:04:29;57.00;16.50
30520;DHT22;17300;50.374;8.006;2022-08-03T10:07:05;57.00;16.40
30520;DHT22;17300;50.374;8.006;2022-08-03T10:09:32;57.00;16.20
30520;DHT22;17300;50.374;8.006;2022-08-03T10:12:10;57.00;16.40
30520;DHT22;17300;50.374;8.006;2022-08-03T10:30:09;57.40;16.30
30520;DHT22;17300;50.374;8.006;2022-08-03T10:32:40;57.30;15.80
30520;DHT22;17300;50.374;8.006;2022-08-03T10:35:10;57.40;15.80
30520;DHT22;17300;50.374;8.006;2022-08-03T10:37:41;57.40;15.90
30520;DHT22;17300;50.374;8.006;2022-08-03T10:40:11;57.40;16.00
30520;DHT22;17300;50.374;8.006;2022-08-03T10:42:40;57.40;16.00
30520;DHT22;17300;50.374;8.006;2022-08-03T10:45:17;57.20;15.70
30520;DHT22;17300;50.374;8.006;2022-08-03T10:47:45;57.20;15.60
30520;DHT22;17300;50.374;8.006;2022-08-03T10:50:13;57.10;15.60
30520;DHT22;17300;50.374;8.006;2022-08-03T10:52:56;57.00;15.70
30520;DHT22;17300;50.374;8.006;2022-08-03T10:55:31;56.90;15.70
30520;DHT22;17300;50.374;8.006;2022-08-03T10:58:46;56.70;15.50
30520;DHT22;17300;50.374;8.006;2022-08-03T11:01:16;56.50;15.80
30520;DHT22;17300;50.374;8.006;2022-08-03T11:04:14;56.20;15.60
30520;DHT22;17300;50.374;8.006;2022-08-03T11:06:43;55.90;15.90
30520;DHT22;17300;50.374;8.006;2022-08-03T11:09:15;55.70;16.10
30520;DHT22;17300;50.374;8.006;2022-08-03T11:11:43;55.50;16.60
30520;DHT22;17300;50.374;8.006;2022-08-03T11:14:12;55.30;16.10
30520;DHT22;17300;50.374;8.006;2022-08-03T11:16:42;55.20;16.10
30520;DHT22;17300;50.374;8.006;2022-08-03T11:19:12;55.00;16.30
30520;DHT22;17300;50.374;8.006;2022-08-03T11:21:52;54.80;16.20
30520;DHT22;17300;50.374;8.006;2022-08-03T11:27:28;54.40;16.00
30520;DHT22;17300;50.374;8.006;2022-08-03T11:29:58;54.10;15.90
30520;DHT22;17300;50.374;8.006;2022-08-03T11:32:51;53.90;16.10
30520;DHT22;17300;50.374;8.006;2022-08-03T11:35:20;53.50;16.40
30520;DHT22;17300;50.374;8.006;2022-08-03T11:38:07;53.10;16.10
30520;DHT22;17300;50.374;8.006;2022-08-03T11:40:36;52.80;16.50
30520;DHT22;17300;50.374;8.006;2022-08-03T11:43:03;52.40;16.30
30520;DHT22;17300;50.374;8.006;2022-08-03T11:45:31;52.10;16.60
30520;DHT22;17300;50.374;8.006;2022-08-03T11:48:12;51.70;16.60
30520;DHT22;17300;50.374;8.006;2022-08-03T11:50:40;51.20;16.70
30520;DHT22;17300;50.374;8.006;2022-08-03T11:53:13;50.80;16.60
30520;DHT22;17300;50.374;8.006;2022-08-03T11:55:41;50.30;16.50
30520;DHT22;17300;50.374;8.006;2022-08-03T11:58:15;49.80;16.60
30520;DHT22;17300;50.374;8.006;2022-08-03T12:00:42;49.30;16.90
30520;DHT22;17300;50.374;8.006;2022-08-03T12:03:13;48.90;16.90
30520;DHT22;17300;50.374;8.006;2022-08-03T12:05:45;48.30;16.90
30520;DHT22;17300;50.374;8.006;2022-08-03T12:08:14;47.70;17.10
30520;DHT22;17300;50.374;8.006;2022-08-03T12:10:47;47.20;17.40
30520;DHT22;17300;50.374;8.006;2022-08-03T12:13:14;46.70;17.80
30520;DHT22;17300;50.374;8.006;2022-08-03T12:15:41;46.40;18.00
30520;DHT22;17300;50.374;8.006;2022-08-03T12:18:15;45.90;18.00
30520;DHT22;17300;50.374;8.006;2022-08-03T12:20:43;45.60;18.40
30520;DHT22;17300;50.374;8.006;2022-08-03T12:23:11;45.20;18.60
30520;DHT22;17300;50.374;8.006;2022-08-03T12:25:40;44.90;18.60
30520;DHT22;17300;50.374;8.006;2022-08-03T12:28:15;44.60;19.00
30520;DHT22;17300;50.374;8.006;2022-08-03T12:30:45;44.30;18.90
30520;DHT22;17300;50.374;8.006;2022-08-03T12:33:15;44.10;18.90
30520;DHT22;17300;50.374;8.006;2022-08-03T12:35:44;43.80;19.20
30520;DHT22;17300;50.374;8.006;2022-08-03T12:38:11;43.50;19.20
30520;DHT22;17300;50.374;8.006;2022-08-03T12:40:38;43.30;19.60
30520;DHT22;17300;50.374;8.006;2022-08-03T12:43:11;43.10;19.60
30520;DHT22;17300;50.374;8.006;2022-08-03T12:45:38;42.80;19.70
30520;DHT22;17300;50.374;8.006;2022-08-03T12:48:08;42.60;19.80
30520;DHT22;17300;50.374;8.006;2022-08-03T12:50:38;42.30;20.00
30520;DHT22;17300;50.374;8.006;2022-08-03T12:53:07;42.00;20.10
30520;DHT22;17300;50.374;8.006;2022-08-03T12:55:35;41.80;20.30
30520;DHT22;17300;50.374;8.006;2022-08-03T12:58:04;41.50;20.40
30520;DHT22;17300;50.374;8.006;2022-08-03T13:00:31;41.20;20.50
30520;DHT22;17300;50.374;8.006;2022-08-03T13:02:59;41.00;21.20
30520;DHT22;17300;50.374;8.006;2022-08-03T13:05:26;40.90;21.10
30520;DHT22;17300;50.374;8.006;2022-08-03T13:07:55;40.70;21.20
30520;DHT22;17300;50.374;8.006;2022-08-03T13:10:30;40.50;21.20
30520;DHT22;17300;50.374;8.006;2022-08-03T13:12:57;40.40;21.40
30520;DHT22;17300;50.374;8.006;2022-08-03T13:15:27;40.20;21.30
30520;DHT22;17300;50.374;8.006;2022-08-03T13:17:54;40.10;21.50
30520;DHT22;17300;50.374;8.006;2022-08-03T13:20:21;40.00;21.60
30520;DHT22;17300;50.374;8.006;2022-08-03T13:22:48;39.90;21.50
30520;DHT22;17300;50.374;8.006;2022-08-03T13:25:16;39.80;21.80
30520;DHT22;17300;50.374;8.006;2022-08-03T13:27:43;39.70;21.90
30520;DHT22;17300;50.374;8.006;2022-08-03T13:30:10;39.60;22.10
30520;DHT22;17300;50.374;8.006;2022-08-03T13:32:37;39.60;22.30
30520;DHT22;17300;50.374;8.006;2022-08-03T13:35:05;39.60;22.50
30520;DHT22;17300;50.374;8.006;2022-08-03T13:37:32;39.50;22.50
30520;DHT22;17300;50.374;8.006;2022-08-03T13:39:59;39.50;22.70
30520;DHT22;17300;50.374;8.006;2022-08-03T13:42:28;39.50;23.00
30520;DHT22;17300;50.374;8.006;2022-08-03T13:44:55;39.60;23.10
30520;DHT22;17300;50.374;8.006;2022-08-03T13:47:21;39.60;23.10
30520;DHT22;17300;50.374;8.006;2022-08-03T13:49:48;39.70;23.20
30520;DHT22;17300;50.374;8.006;2022-08-03T13:52:16;39.80;23.20
30520;DHT22;17300;50.374;8.006;2022-08-03T13:54:43;39.80;23.20
30520;DHT22;17300;50.374;8.006;2022-08-03T13:57:10;39.90;23.10
30520;DHT22;17300;50.374;8.006;2022-08-03T13:59:38;39.90;22.80
30520;DHT22;17300;50.374;8.006;2022-08-03T14:02:05;39.90;22.60
30520;DHT22;17300;50.374;8.006;2022-08-03T14:04:31;39.90;22.70
30520;DHT22;17300;50.374;8.006;2022-08-03T14:06:58;40.00;22.60
30520;DHT22;17300;50.374;8.006;2022-08-03T14:09:25;39.90;22.50
30520;DHT22;17300;50.374;8.006;2022-08-03T14:11:52;40.00;22.40
30520;DHT22;17300;50.374;8.006;2022-08-03T14:14:19;39.90;22.50
30520;DHT22;17300;50.374;8.006;2022-08-03T14:16:47;39.80;22.30
30520;DHT22;17300;50.374;8.006;2022-08-03T14:19:14;39.70;22.40
30520;DHT22;17300;50.374;8.006;2022-08-03T14:21:41;39.70;22.50
30520;DHT22;17300;50.374;8.006;2022-08-03T14:24:08;39.60;22.70
30520;DHT22;17300;50.374;8.006;2022-08-03T14:26:34;39.50;22.50
30520;DHT22;17300;50.374;8.006;2022-08-03T14:29:01;39.40;22.40
30520;DHT22;17300;50.374;8.006;2022-08-03T14:31:29;39.40;22.60
30520;DHT22;17300;50.374;8.006;2022-08-03T14:33:57;39.20;22.70
30520;DHT22;17300;50.374;8.006;2022-08-03T14:36:24;39.10;22.90
30520;DHT22;17300;50.374;8.006;2022-08-03T14:38:51;39.00;23.00
30520;DHT22;17300;50.374;8.006;2022-08-03T14:41:18;38.90;23.10
30520;DHT22;17300;50.374;8.006;2022-08-03T14:43:44;38.80;23.10
30520;DHT22;17300;50.374;8.006;2022-08-03T14:46:11;38.70;23.30
30520;DHT22;17300;50.374;8.006;2022-08-03T14:48:38;38.60;23.40
30520;DHT22;17300;50.374;8.006;2022-08-03T14:51:06;38.50;23.40
30520;DHT22;17300;50.374;8.006;2022-08-03T14:53:33;38.40;23.60
30520;DHT22;17300;50.374;8.006;2022-08-03T14:56:00;38.40;23.40
30520;DHT22;17300;50.374;8.006;2022-08-03T14:58:26;38.30;23.50
30520;DHT22;17300;50.374;8.006;2022-08-03T15:00:54;38.20;23.40
30520;DHT22;17300;50.374;8.006;2022-08-03T15:03:22;38.10;23.30
30520;DHT22;17300;50.374;8.006;2022-08-03T15:05:49;38.00;23.30
30520;DHT22;17300;50.374;8.006;2022-08-03T15:08:17;37.90;23.40
30520;DHT22;17300;50.374;8.006;2022-08-03T15:10:44;37.70;23.60
30520;DHT22;17300;50.374;8.006;2022-08-03T15:13:11;37.60;23.50
30520;DHT22;17300;50.374;8.006;2022-08-03T15:15:37;37.50;23.60
30520;DHT22;17300;50.374;8.006;2022-08-03T15:18:04;37.40;23.70
30520;DHT22;17300;50.374;8.006;2022-08-03T15:20:31;37.40;23.80
30520;DHT22;17300;50.374;8.006;2022-08-03T15:22:58;37.20;23.70
30520;DHT22;17300;50.374;8.006;2022-08-03T15:25:26;37.10;23.70
30520;DHT22;17300;50.374;8.006;2022-08-03T15:27:53;37.10;23.80
30520;DHT22;17300;50.374;8.006;2022-08-03T15:30:20;37.00;23.90
30520;DHT22;17300;50.374;8.006;2022-08-03T15:32:47;36.90;23.90
30520;DHT22;17300;50.374;8.006;2022-08-03T15:35:13;36.90;24.00
30520;DHT22;17300;50.374;8.006;2022-08-03T15:37:40;36.90;24.10
30520;DHT22;17300;50.374;8.006;2022-08-03T15:40:08;36.80;24.10
30520;DHT22;17300;50.374;8.006;2022-08-03T15:42:36;36.80;24.20
30520;DHT22;17300;50.374;8.006;2022-08-03T15:45:03;36.70;24.20
30520;DHT22;17300;50.374;8.006;2022-08-03T15:47:30;36.70;24.20
30520;DHT22;17300;50.374;8.006;2022-08-03T15:49:57;36.60;24.20
30520;DHT22;17300;50.374;8.006;2022-08-03T15:52:24;36.50;24.10
30520;DHT22;17300;50.374;8.006;2022-08-03T15:54:50;36.50;24.30
30520;DHT22;17300;50.374;8.006;2022-08-03T15:57:17;36.40;24.30
30520;DHT22;17300;50.374;8.006;2022-08-03T15:59:45;36.40;24.40